createdAt,value
2018-06-15T00:01:14.665Z,17.13
2018-06-15T00:03:43.939Z,18.57
2018-06-15T00:06:13.312Z,23.27
2018-06-15T00:08:42.567Z,15.73
2018-06-15T00:11:12.053Z,17.93
2018-06-15T00:13:41.248Z,19.07
2018-06-15T00:16:10.438Z,22.33
2018-06-15T00:18:39.700Z,17.60
2018-06-15T00:21:08.871Z,16.90
2018-06-15T00:23:38.160Z,19.87
2018-06-15T00:26:07.321Z,18.10
2018-06-15T00:28:36.547Z,13.63
2018-06-15T00:31:05.728Z,14.30
2018-06-15T00:33:34.996Z,13.83
2018-06-15T00:36:04.417Z,20.20
2018-06-15T00:38:33.627Z,16.33
2018-06-15T00:41:02.804Z,20.33
2018-06-15T00:43:31.976Z,13.77
2018-06-15T00:46:01.184Z,18.30
2018-06-15T00:48:30.368Z,16.07
2018-06-15T00:50:59.580Z,20.37
2018-06-15T00:53:29.071Z,14.97
2018-06-15T00:55:58.011Z,24.40
2018-06-15T00:58:27.060Z,14.50
2018-06-15T01:00:56.332Z,22.20
2018-06-15T01:03:25.518Z,17.37
2018-06-15T01:05:54.859Z,18.17
2018-06-15T01:08:24.147Z,16.07
2018-06-15T01:10:53.576Z,15.93
2018-06-15T01:13:22.771Z,14.93
2018-06-15T01:15:52.037Z,19.23
2018-06-15T01:18:21.220Z,18.00
2018-06-15T01:20:50.421Z,23.20
2018-06-15T01:23:19.792Z,18.97
2018-06-15T01:25:48.981Z,14.30
2018-06-15T01:28:18.600Z,20.40
2018-06-15T01:30:47.787Z,20.23
2018-06-15T01:33:16.951Z,20.17
2018-06-15T01:35:46.288Z,18.80
2018-06-15T01:38:18.352Z,18.10
2018-06-15T01:40:47.546Z,24.47
2018-06-15T01:43:16.744Z,19.63
2018-06-15T01:45:46.036Z,17.40
2018-06-15T01:48:15.244Z,19.13
2018-06-15T01:50:44.445Z,17.27
2018-06-15T01:53:13.615Z,15.67
2018-06-15T01:55:42.800Z,17.30
2018-06-15T01:58:11.970Z,18.60
2018-06-15T02:00:41.187Z,19.73
2018-06-15T02:03:10.383Z,18.70
2018-06-15T02:05:39.246Z,29.20
2018-06-15T02:08:08.372Z,19.53
2018-06-15T02:10:37.243Z,22.10
2018-06-15T02:13:06.324Z,16.30
2018-06-15T02:15:35.606Z,18.37
2018-06-15T02:18:05.195Z,22.00
2018-06-15T02:20:34.699Z,19.40
2018-06-15T02:23:03.919Z,21.47
2018-06-15T02:25:33.157Z,17.13
2018-06-15T02:28:03.020Z,27.53
2018-06-15T02:30:32.355Z,23.00
2018-06-15T02:33:02.025Z,19.73
2018-06-15T02:35:31.236Z,20.70
2018-06-15T02:38:00.424Z,16.97
2018-06-15T02:40:29.634Z,18.73
2018-06-15T02:42:58.812Z,22.43
2018-06-15T02:45:28.147Z,24.17
2018-06-15T02:47:57.370Z,24.07
2018-06-15T02:50:27.055Z,23.13
2018-06-15T02:52:56.221Z,23.23
2018-06-15T02:55:25.836Z,17.10
2018-06-15T02:57:55.028Z,22.43
2018-06-15T03:00:24.227Z,21.83
2018-06-15T03:02:53.477Z,22.27
2018-06-15T03:05:22.769Z,22.40
2018-06-15T03:07:51.970Z,25.97
2018-06-15T03:10:21.148Z,21.30
2018-06-15T03:12:50.331Z,22.27
2018-06-15T03:15:19.774Z,23.80
2018-06-15T03:17:49.096Z,23.33
2018-06-15T03:20:18.429Z,24.93
2018-06-15T03:22:47.609Z,18.27
2018-06-15T03:25:16.999Z,18.63
2018-06-15T03:27:46.224Z,19.10
2018-06-15T03:30:15.415Z,18.37
2018-06-15T03:32:44.612Z,20.33
2018-06-15T03:35:13.847Z,34.50
2018-06-15T03:37:43.119Z,18.77
2018-06-15T03:40:12.308Z,24.97
2018-06-15T03:42:41.523Z,22.57
2018-06-15T03:45:10.704Z,23.60
2018-06-15T03:47:40.054Z,26.77
2018-06-15T03:50:09.281Z,19.03
2018-06-15T03:52:38.471Z,23.50
2018-06-15T03:55:07.730Z,29.90
2018-06-15T03:57:37.028Z,21.87
2018-06-15T04:00:06.351Z,21.20
2018-06-15T04:02:35.553Z,22.40
2018-06-15T04:05:04.792Z,24.43
2018-06-15T04:07:34.089Z,29.13
2018-06-15T04:10:03.381Z,22.33
2018-06-15T04:12:32.894Z,22.13
2018-06-15T04:15:02.217Z,22.03
2018-06-15T04:17:31.752Z,24.13
2018-06-15T04:20:00.930Z,19.30
2018-06-15T04:22:30.289Z,20.63
2018-06-15T04:24:59.767Z,25.03
2018-06-15T04:27:28.999Z,24.53
2018-06-15T04:29:58.188Z,23.83
2018-06-15T04:32:27.385Z,21.10
2018-06-15T04:35:03.523Z,22.43
2018-06-15T04:37:32.714Z,21.40
2018-06-15T04:40:01.914Z,24.30
2018-06-15T04:42:31.317Z,24.10
2018-06-15T04:45:00.568Z,25.30
2018-06-15T04:47:30.036Z,27.70
2018-06-15T04:49:59.237Z,30.70
2018-06-15T04:52:28.407Z,28.80
2018-06-15T04:54:57.829Z,25.40
2018-06-15T04:57:27.055Z,23.80
2018-06-15T04:59:56.620Z,28.83
2018-06-15T05:02:25.805Z,24.53
2018-06-15T05:04:55.144Z,29.30
2018-06-15T05:07:24.536Z,20.37
2018-06-15T05:09:53.715Z,24.27
2018-06-15T05:12:22.794Z,23.97
2018-06-15T05:14:52.007Z,21.30
2018-06-15T05:17:21.340Z,20.30
2018-06-15T05:19:50.500Z,30.17
2018-06-15T05:22:20.170Z,25.80
2018-06-15T05:24:50.295Z,23.00
2018-06-15T05:27:20.461Z,27.00
2018-06-15T05:29:49.813Z,31.10
2018-06-15T05:32:19.185Z,37.10
2018-06-15T05:34:49.526Z,30.13
2018-06-15T05:37:18.811Z,32.47
2018-06-15T05:39:48.506Z,63.87
2018-06-15T05:42:17.637Z,65.67
2018-06-15T05:44:47.004Z,32.33
2018-06-15T05:47:16.721Z,39.17
2018-06-15T05:49:46.027Z,72.60
2018-06-15T05:52:15.813Z,57.17
2018-06-15T05:54:44.951Z,34.67
2018-06-15T05:57:14.123Z,32.90
2018-06-15T05:59:43.274Z,29.83
2018-06-15T06:02:12.483Z,25.23
2018-06-15T06:04:42.265Z,34.87
2018-06-15T06:07:11.499Z,29.07
2018-06-15T06:09:41.135Z,32.80
2018-06-15T06:12:10.409Z,27.67
2018-06-15T06:14:39.699Z,31.50
2018-06-15T06:17:09.316Z,31.70
2018-06-15T06:19:38.659Z,33.13
2018-06-15T06:22:08.120Z,30.60
2018-06-15T06:24:37.549Z,32.40
2018-06-15T06:27:07.080Z,40.10
2018-06-15T06:29:36.627Z,33.93
2018-06-15T06:32:06.070Z,38.23
2018-06-15T06:34:35.303Z,40.97
2018-06-15T06:37:04.694Z,30.73
2018-06-15T06:39:33.992Z,36.70
2018-06-15T06:42:03.396Z,54.80
2018-06-15T06:44:32.652Z,48.80
2018-06-15T06:47:01.834Z,50.43
2018-06-15T06:49:31.054Z,60.00
2018-06-15T06:51:59.936Z,52.70
2018-06-15T06:54:28.989Z,46.60
2018-06-15T06:56:58.164Z,45.07
2018-06-15T06:59:27.362Z,43.93
2018-06-15T07:01:56.743Z,40.20
2018-06-15T07:04:26.267Z,49.50
2018-06-15T07:06:55.457Z,37.50
2018-06-15T07:09:24.660Z,38.10
2018-06-15T07:11:53.915Z,34.10
2018-06-15T07:14:23.086Z,34.20
2018-06-15T07:16:52.438Z,39.23
2018-06-15T07:19:21.660Z,34.97
2018-06-15T07:21:50.903Z,27.27
2018-06-15T07:24:20.143Z,33.63
2018-06-15T07:26:49.740Z,28.13
2018-06-15T07:29:18.999Z,31.33
2018-06-15T07:31:48.811Z,27.40
2018-06-15T07:34:18.127Z,33.07
2018-06-15T07:36:47.937Z,30.17
2018-06-15T07:39:17.159Z,26.87
2018-06-15T07:41:46.590Z,22.17
2018-06-15T07:44:16.215Z,20.30
2018-06-15T07:46:45.395Z,18.43
2018-06-15T07:49:14.628Z,16.93
2018-06-15T07:51:43.935Z,17.23
2018-06-15T07:54:15.073Z,17.83
2018-06-15T07:56:45.012Z,17.57
2018-06-15T07:59:13.918Z,12.93
2018-06-15T08:01:43.095Z,14.27
2018-06-15T08:04:13.534Z,12.17
2018-06-15T08:06:42.800Z,19.40
2018-06-15T08:09:11.978Z,18.77
2018-06-15T08:11:41.202Z,13.93
2018-06-15T08:14:10.533Z,15.20
2018-06-15T08:16:39.721Z,12.00
2018-06-15T08:19:08.944Z,14.30
2018-06-15T08:21:38.334Z,14.30
2018-06-15T08:24:07.932Z,14.83
2018-06-15T08:26:37.183Z,14.80
2018-06-15T08:29:06.365Z,17.17
2018-06-15T08:31:35.726Z,18.40
2018-06-15T08:34:04.975Z,17.90
2018-06-15T08:36:34.150Z,16.50
2018-06-15T08:39:04.837Z,19.03
2018-06-15T08:41:34.038Z,21.33
2018-06-15T08:44:02.928Z,17.47
2018-06-15T08:46:32.026Z,18.00
2018-06-15T08:49:01.285Z,17.40
2018-06-15T08:51:30.701Z,16.10
2018-06-15T08:53:59.919Z,15.50
2018-06-15T08:56:29.200Z,14.13
2018-06-15T08:58:58.359Z,14.00
2018-06-15T09:01:27.770Z,13.30
2018-06-15T09:03:57.227Z,12.13
2018-06-15T09:06:26.404Z,18.80
2018-06-15T09:08:56.487Z,13.90
2018-06-15T09:11:25.688Z,15.97
2018-06-15T09:13:55.038Z,13.33
2018-06-15T09:16:24.005Z,15.00
2018-06-15T09:18:53.212Z,11.93
2018-06-15T09:21:22.455Z,14.13
2018-06-15T09:23:51.659Z,14.33
2018-06-15T09:26:21.062Z,11.73
2018-06-15T09:28:50.467Z,12.37
2018-06-15T09:31:20.138Z,13.77
2018-06-15T09:33:49.580Z,12.30
2018-06-15T09:36:18.800Z,11.50
2018-06-15T09:38:48.504Z,12.03
2018-06-15T09:41:17.691Z,11.23
2018-06-15T09:43:46.906Z,13.50
2018-06-15T09:46:16.295Z,10.10
2018-06-15T09:48:45.582Z,10.63
2018-06-15T09:51:15.578Z,10.20
2018-06-15T09:53:44.776Z,10.70
2018-06-15T09:56:13.995Z,11.13
2018-06-15T09:58:43.316Z,10.90
2018-06-15T10:01:12.590Z,10.40
2018-06-15T10:03:42.347Z,9.93
2018-06-15T10:06:11.507Z,9.77
2018-06-15T10:08:40.615Z,12.73
2018-06-15T10:11:09.891Z,17.07
2018-06-15T10:13:39.239Z,10.70
2018-06-15T10:16:08.433Z,11.23
2018-06-15T10:18:37.653Z,7.70
2018-06-15T10:21:06.855Z,12.20
2018-06-15T10:23:36.160Z,7.57
2018-06-15T10:26:05.371Z,8.13
2018-06-15T10:28:34.721Z,9.17
2018-06-15T10:31:04.063Z,11.23
2018-06-15T10:33:33.291Z,7.70
2018-06-15T10:36:02.715Z,6.53
2018-06-15T10:38:32.649Z,6.70
2018-06-15T10:41:02.166Z,8.43
2018-06-15T10:43:31.843Z,7.93
2018-06-15T10:46:01.084Z,8.63
2018-06-15T10:48:30.436Z,6.80
2018-06-15T10:50:59.760Z,7.90
2018-06-15T10:53:29.070Z,6.63
2018-06-15T10:55:58.332Z,9.73
2018-06-15T10:58:27.226Z,7.80
2018-06-15T11:00:56.429Z,9.90
2018-06-15T11:03:25.804Z,7.70
2018-06-15T11:05:55.283Z,7.27
2018-06-15T11:08:24.432Z,7.83
2018-06-15T11:10:53.651Z,7.53
2018-06-15T11:13:22.937Z,8.20
2018-06-15T11:15:52.220Z,7.53
2018-06-15T11:18:21.426Z,8.83
2018-06-15T11:20:50.797Z,8.73
2018-06-15T11:23:20.085Z,10.20
2018-06-15T11:25:49.355Z,8.93
2018-06-15T11:28:18.568Z,9.20
2018-06-15T11:30:47.981Z,10.10
2018-06-15T11:33:17.165Z,6.17
2018-06-15T11:35:46.387Z,10.40
2018-06-15T11:38:15.557Z,7.10
2018-06-15T11:40:44.753Z,6.47
2018-06-15T11:43:13.928Z,6.37
2018-06-15T11:45:43.142Z,7.90
2018-06-15T11:48:12.504Z,9.53
2018-06-15T11:50:41.766Z,9.37
2018-06-15T11:53:11.058Z,5.23
2018-06-15T11:55:40.376Z,8.30
2018-06-15T11:58:09.946Z,7.40
2018-06-15T12:00:39.220Z,5.23
2018-06-15T12:03:08.847Z,8.47
2018-06-15T12:05:38.275Z,5.93
2018-06-15T12:08:07.638Z,10.03
2018-06-15T12:10:36.839Z,8.00
2018-06-15T12:13:06.236Z,8.10
2018-06-15T12:15:35.499Z,5.30
2018-06-15T12:18:04.806Z,9.37
2018-06-15T12:20:34.279Z,9.00
2018-06-15T12:23:03.510Z,6.00
2018-06-15T12:25:32.740Z,5.17
2018-06-15T12:28:01.946Z,5.30
2018-06-15T12:30:31.287Z,7.53
2018-06-15T12:33:00.540Z,5.57
2018-06-15T12:35:30.488Z,5.87
2018-06-15T12:37:59.843Z,5.90
2018-06-15T12:40:29.629Z,5.70
2018-06-15T12:42:58.947Z,4.40
2018-06-15T12:45:28.173Z,3.57
2018-06-15T12:47:57.355Z,15.20
2018-06-15T12:50:26.774Z,6.67
2018-06-15T12:52:56.112Z,4.37
2018-06-15T12:55:25.528Z,4.43
2018-06-15T12:57:54.715Z,6.60
2018-06-15T13:00:23.979Z,4.57
2018-06-15T13:02:59.748Z,8.33
2018-06-15T13:05:29.092Z,5.80
2018-06-15T13:07:58.414Z,7.67
2018-06-15T13:10:27.545Z,7.33
2018-06-15T13:12:56.853Z,7.60
2018-06-15T13:15:26.081Z,4.33
2018-06-15T13:17:55.296Z,4.80
2018-06-15T13:20:24.583Z,9.77
2018-06-15T13:22:53.837Z,6.03
2018-06-15T13:25:23.044Z,3.70
2018-06-15T13:27:52.239Z,3.93
2018-06-15T13:30:21.435Z,3.67
2018-06-15T13:32:50.646Z,6.10
2018-06-15T13:35:20.010Z,5.80
2018-06-15T13:37:49.400Z,4.27
2018-06-15T13:40:19.152Z,3.77
2018-06-15T13:42:48.415Z,6.20
2018-06-15T13:45:17.881Z,4.97
2018-06-15T13:47:47.048Z,5.40
2018-06-15T13:50:16.263Z,4.20
2018-06-15T13:52:45.879Z,4.30
2018-06-15T13:55:15.050Z,5.10
2018-06-15T13:57:44.257Z,4.70
2018-06-15T14:00:13.390Z,5.57
2018-06-15T14:02:42.424Z,10.80
2018-06-15T14:05:11.648Z,3.60
2018-06-15T14:07:40.883Z,3.30
2018-06-15T14:10:10.169Z,8.13
2018-06-15T14:12:39.619Z,3.73
2018-06-15T14:15:08.819Z,4.17
2018-06-15T14:17:38.135Z,6.90
2018-06-15T14:20:07.469Z,6.67
2018-06-15T14:22:36.627Z,3.30
2018-06-15T14:25:05.966Z,3.43
2018-06-15T14:27:35.199Z,4.27
2018-06-15T14:30:04.615Z,9.90
2018-06-15T14:32:33.851Z,5.83
2018-06-15T14:35:03.061Z,5.63
2018-06-15T14:37:32.294Z,4.63
2018-06-15T14:40:01.642Z,5.80
2018-06-15T14:42:31.063Z,4.20
2018-06-15T14:45:00.304Z,6.27
2018-06-15T14:47:30.084Z,9.33
2018-06-15T14:49:59.580Z,7.17
2018-06-15T14:52:28.853Z,9.53
2018-06-15T14:54:57.731Z,4.30
2018-06-15T14:57:27.151Z,5.23
2018-06-15T14:59:56.436Z,5.03
2018-06-15T15:02:26.068Z,4.73
2018-06-15T15:04:55.519Z,3.53
2018-06-15T15:07:25.182Z,7.23
2018-06-15T15:09:54.518Z,4.17
2018-06-15T15:12:23.769Z,3.60
2018-06-15T15:14:53.067Z,8.47
2018-06-15T15:17:22.467Z,3.57
2018-06-15T15:19:51.874Z,7.50
2018-06-15T15:22:21.183Z,5.30
2018-06-15T15:24:50.499Z,9.20
2018-06-15T15:27:19.671Z,7.90
2018-06-15T15:29:48.908Z,8.93
2018-06-15T15:32:18.250Z,9.27
2018-06-15T15:34:47.601Z,4.70
2018-06-15T15:37:16.816Z,7.80
2018-06-15T15:39:46.244Z,7.77
2018-06-15T15:42:15.659Z,7.30
2018-06-15T15:44:44.926Z,4.80
2018-06-15T15:47:14.117Z,4.50
2018-06-15T15:49:43.292Z,4.07
2018-06-15T15:52:12.666Z,10.17
2018-06-15T15:54:42.051Z,6.07
2018-06-15T15:57:11.287Z,4.23
2018-06-15T15:59:40.521Z,7.10
2018-06-15T16:02:09.821Z,3.87
2018-06-15T16:04:39.068Z,5.17
2018-06-15T16:07:08.279Z,5.27
2018-06-15T16:09:37.500Z,7.60
2018-06-15T16:12:06.808Z,6.57
2018-06-15T16:14:36.120Z,10.80
2018-06-15T16:17:05.360Z,4.07
2018-06-15T16:19:34.352Z,4.27
2018-06-15T16:22:03.556Z,8.23
2018-06-15T16:24:32.425Z,4.47
2018-06-15T16:27:01.524Z,8.13
2018-06-15T16:29:31.228Z,6.80
2018-06-15T16:32:00.639Z,4.33
2018-06-15T16:34:29.848Z,6.97
2018-06-15T16:36:59.468Z,8.07
2018-06-15T16:39:28.811Z,6.67
2018-06-15T16:41:58.214Z,8.83
2018-06-15T16:44:27.420Z,7.80
2018-06-15T16:46:56.988Z,6.40
2018-06-15T16:49:26.321Z,6.20
2018-06-15T16:51:55.904Z,10.30
2018-06-15T16:54:25.071Z,6.10
2018-06-15T16:56:54.235Z,10.80
2018-06-15T16:59:23.407Z,10.03
2018-06-15T17:01:53.133Z,6.23
2018-06-15T17:04:22.347Z,10.80
2018-06-15T17:06:51.653Z,8.00
2018-06-15T17:09:20.840Z,8.73
2018-06-15T17:11:50.045Z,5.50
2018-06-15T17:14:19.248Z,5.63
2018-06-15T17:16:48.466Z,7.40
2018-06-15T17:19:17.995Z,7.80
2018-06-15T17:21:47.602Z,5.03
2018-06-15T17:24:16.892Z,8.20
2018-06-15T17:26:46.172Z,8.23
2018-06-15T17:29:15.390Z,4.13
2018-06-15T17:31:44.876Z,7.33
2018-06-15T17:34:14.318Z,6.50
2018-06-15T17:36:45.116Z,8.33
2018-06-15T17:39:14.625Z,9.03
2018-06-15T17:41:44.539Z,11.53
2018-06-15T17:44:13.756Z,5.50
2018-06-15T17:46:43.030Z,5.87
2018-06-15T17:49:12.257Z,8.40
2018-06-15T17:51:41.124Z,6.03
2018-06-15T17:54:10.199Z,6.43
2018-06-15T17:56:39.741Z,8.97
2018-06-15T17:59:09.005Z,5.50
2018-06-15T18:01:38.868Z,3.63
2018-06-15T18:04:08.827Z,4.07
2018-06-15T18:06:38.136Z,6.57
2018-06-15T18:09:09.389Z,7.13
2018-06-15T18:11:39.028Z,7.47
2018-06-15T18:14:08.635Z,12.63
2018-06-15T18:16:37.798Z,4.07
2018-06-15T18:19:07.021Z,6.93
2018-06-15T18:21:36.294Z,4.60
2018-06-15T18:24:05.643Z,7.57
2018-06-15T18:26:34.910Z,6.10
2018-06-15T18:29:04.256Z,6.83
2018-06-15T18:31:33.480Z,6.57
2018-06-15T18:34:02.812Z,5.47
2018-06-15T18:36:32.077Z,5.83
2018-06-15T18:39:01.253Z,8.87
2018-06-15T18:41:30.444Z,8.67
2018-06-15T18:43:59.612Z,5.70
2018-06-15T18:46:28.781Z,7.97
2018-06-15T18:48:57.935Z,7.03
2018-06-15T18:51:27.216Z,7.03
2018-06-15T18:53:57.100Z,8.93
2018-06-15T18:56:26.060Z,8.80
2018-06-15T18:58:55.132Z,11.23
2018-06-15T19:01:24.319Z,6.30
2018-06-15T19:03:53.873Z,4.00
2018-06-15T19:06:23.065Z,9.93
2018-06-15T19:08:52.288Z,4.77
2018-06-15T19:11:22.007Z,5.97
2018-06-15T19:13:50.883Z,3.90
2018-06-15T19:16:20.063Z,7.50
2018-06-15T19:18:49.325Z,6.77
2018-06-15T19:21:19.612Z,5.50
2018-06-15T19:23:48.915Z,9.27
2018-06-15T19:26:18.551Z,6.10
2018-06-15T19:28:48.166Z,6.13
2018-06-15T19:31:17.383Z,11.30
2018-06-15T19:33:46.606Z,7.03
2018-06-15T19:36:16.246Z,10.27
2018-06-15T19:38:45.598Z,5.43
2018-06-15T19:41:14.792Z,10.00
2018-06-15T19:43:44.172Z,6.90
2018-06-15T19:46:13.608Z,4.60
2018-06-15T19:48:42.874Z,6.37
2018-06-15T19:51:12.107Z,5.87
2018-06-15T19:53:41.327Z,9.57
2018-06-15T19:56:10.546Z,5.40
2018-06-15T19:58:39.788Z,11.30
2018-06-15T20:01:08.993Z,6.93
2018-06-15T20:03:38.292Z,13.57
2018-06-15T20:06:07.637Z,8.13
2018-06-15T20:08:36.875Z,5.73
2018-06-15T20:11:06.124Z,8.70
2018-06-15T20:13:35.367Z,11.33
2018-06-15T20:16:04.569Z,8.00
2018-06-15T20:18:33.767Z,5.87
2018-06-15T20:21:02.960Z,7.40
2018-06-15T20:23:32.944Z,11.23
2018-06-15T20:26:02.121Z,8.80
2018-06-15T20:28:31.328Z,9.20
2018-06-15T20:31:00.511Z,6.93
2018-06-15T20:33:29.684Z,5.53
2018-06-15T20:35:58.944Z,10.83
2018-06-15T20:38:28.057Z,9.20
2018-06-15T20:40:57.238Z,13.63
2018-06-15T20:43:26.431Z,8.73
2018-06-15T20:45:55.636Z,12.13
2018-06-15T20:48:24.904Z,8.53
2018-06-15T20:50:55.041Z,6.57
2018-06-15T20:53:24.227Z,10.03
2018-06-15T20:55:53.643Z,11.20
2018-06-15T20:58:23.013Z,7.63
2018-06-15T21:00:53.120Z,7.77
2018-06-15T21:03:22.306Z,10.00
2018-06-15T21:05:51.485Z,6.87
2018-06-15T21:08:20.675Z,8.83
2018-06-15T21:10:49.944Z,9.17
2018-06-15T21:13:19.098Z,7.23
2018-06-15T21:15:48.271Z,12.10
2018-06-15T21:18:17.493Z,13.80
2018-06-15T21:20:46.726Z,8.40
2018-06-15T21:23:15.701Z,9.37
2018-06-15T21:25:44.747Z,8.30
2018-06-15T21:28:14.091Z,11.87
2018-06-15T21:30:43.378Z,5.60
2018-06-15T21:33:12.581Z,10.53
2018-06-15T21:35:42.615Z,8.83
2018-06-15T21:38:11.499Z,12.80
2018-06-15T21:40:40.702Z,8.30
2018-06-15T21:43:10.318Z,10.10
2018-06-15T21:45:39.619Z,11.23
2018-06-15T21:48:08.788Z,9.20
2018-06-15T21:50:38.016Z,13.73
2018-06-15T21:53:07.218Z,9.70
2018-06-15T21:55:36.426Z,12.27
2018-06-15T21:58:05.781Z,9.33
2018-06-15T22:00:34.988Z,11.10
2018-06-15T22:03:04.224Z,9.60
2018-06-15T22:05:33.432Z,10.10
2018-06-15T22:08:02.686Z,11.10
2018-06-15T22:10:31.863Z,7.40
2018-06-15T22:13:01.537Z,12.50
2018-06-15T22:15:30.719Z,10.63
2018-06-15T22:18:00.030Z,9.67
2018-06-15T22:20:29.331Z,8.00
2018-06-15T22:22:58.514Z,13.70
2018-06-15T22:25:28.207Z,10.30
2018-06-15T22:27:57.134Z,12.63
2018-06-15T22:30:26.410Z,12.60
2018-06-15T22:32:55.781Z,11.60
2018-06-15T22:35:24.951Z,8.80
2018-06-15T22:37:54.149Z,9.33
2018-06-15T22:40:23.328Z,15.93
2018-06-15T22:42:52.488Z,13.20
2018-06-15T22:45:21.659Z,10.63
2018-06-15T22:47:51.227Z,10.20
2018-06-15T22:50:20.517Z,12.80
2018-06-15T22:52:49.779Z,15.50
2018-06-15T22:55:18.946Z,13.70
2018-06-15T22:57:48.162Z,12.63
2018-06-15T23:00:18.296Z,9.20
2018-06-15T23:02:47.611Z,11.40
2018-06-15T23:05:16.779Z,18.73
2018-06-15T23:07:46.012Z,12.50
2018-06-15T23:10:14.887Z,9.30
2018-06-15T23:12:44.022Z,13.27
2018-06-15T23:15:13.717Z,11.30
2018-06-15T23:17:42.988Z,13.90
2018-06-15T23:20:12.256Z,12.23
2018-06-15T23:22:41.388Z,10.43
2018-06-15T23:25:10.555Z,12.40
2018-06-15T23:27:39.720Z,9.63
2018-06-15T23:30:08.964Z,11.90
2018-06-15T23:32:38.148Z,10.57
2018-06-15T23:35:07.588Z,14.80
2018-06-15T23:37:36.773Z,12.20
2018-06-15T23:40:06.024Z,16.63
2018-06-15T23:42:35.815Z,15.53
2018-06-15T23:45:05.019Z,17.63
2018-06-15T23:47:34.280Z,12.30
2018-06-15T23:50:03.512Z,9.40
2018-06-15T23:52:32.696Z,10.63
2018-06-15T23:55:01.883Z,10.07
2018-06-15T23:57:31.059Z,12.20
